LELC/MJV METAR and TAF weather

Enter ICAO airport designator
Station Type Date Time Source
LELC METAR 2022/01/29 01:00 UTC NOAA

LELC 290100Z AUTO 28006KT 9000 NCD 05/05 Q1032


Station Type Date Time Source
LELC Decoded METAR 2022/01/29 01:00 UTC NOAA

Murcia / San Javier, Spain (LELC) 37-47N 000-48W 3M
Jan 28, 2022 - 08:00 PM EST / 2022.01.29 0100 UTC
Wind: from the W (280 degrees) at 7 MPH (6 KT):0
Visibility: 5 mile(s):0
Temperature: 41 F (5 C)
Dew Point: 41 F (5 C)
Relative Humidity: 100%
Pressure (altimeter): 30.47 in. Hg (1032 hPa)
ob: LELC 290100Z AUTO 28006KT 9000 NCD 05/05 Q1032
cycle: 1

Station Type Date Time Source
LELC TAF 2022/01/28 19:57 UTC NOAA

TAF
AMD LELC 281949Z 2819/2918 34006KT CAVOK TX16/2913Z TN05/2906Z
BECMG 2910/2912 06010KT

Example: see airport list